createdAt,value
2022-07-29T00:01:43.760Z,54.30
2022-07-29T00:04:12.634Z,54.30
2022-07-29T00:06:41.180Z,54.10
2022-07-29T00:09:09.787Z,54.20
2022-07-29T00:11:39.764Z,54.20
2022-07-29T00:14:08.135Z,54.70
2022-07-29T00:16:36.735Z,54.60
2022-07-29T00:19:05.719Z,54.40
2022-07-29T00:21:36.392Z,54.20
2022-07-29T00:24:05.021Z,54.60
2022-07-29T00:26:33.655Z,55.00
2022-07-29T00:29:33.162Z,54.10
2022-07-29T00:31:53.061Z,54.60
2022-07-29T00:34:38.987Z,54.70
2022-07-29T00:37:08.005Z,54.60
2022-07-29T00:39:36.453Z,54.80
2022-07-29T00:42:05.822Z,54.80
2022-07-29T00:44:39.905Z,54.60
2022-07-29T00:47:08.741Z,54.40
2022-07-29T00:49:37.913Z,54.40
2022-07-29T00:52:07.806Z,54.90
2022-07-29T00:54:39.829Z,54.50
2022-07-29T00:57:14.148Z,54.60
2022-07-29T00:59:43.954Z,54.60
2022-07-29T01:02:12.332Z,54.90
2022-07-29T01:04:41.617Z,55.30
2022-07-29T01:07:10.307Z,55.00
2022-07-29T01:09:45.816Z,55.00
2022-07-29T01:12:18.317Z,55.10
2022-07-29T01:14:49.621Z,55.50
2022-07-29T01:17:24.402Z,55.50
2022-07-29T01:20:00.702Z,54.80
2022-07-29T01:22:39.004Z,54.90
2022-07-29T01:25:36.594Z,55.30
2022-07-29T01:28:26.721Z,56.60
2022-07-29T01:30:57.468Z,58.10
2022-07-29T01:33:46.709Z,58.50
2022-07-29T01:36:19.992Z,59.00
2022-07-29T01:38:58.344Z,61.00
2022-07-29T01:41:29.027Z,63.40
2022-07-29T01:44:04.154Z,64.40
2022-07-29T01:46:38.371Z,64.60
2022-07-29T01:49:14.394Z,65.20
2022-07-29T01:51:49.293Z,65.00
2022-07-29T01:54:26.941Z,65.10
2022-07-29T01:56:58.913Z,64.80
2022-07-29T01:59:28.608Z,66.50
2022-07-29T02:02:01.906Z,65.80
2022-07-29T02:04:31.873Z,67.70
2022-07-29T02:07:04.249Z,67.80
2022-07-29T02:09:34.422Z,67.00
2022-07-29T02:12:05.524Z,67.30
2022-07-29T02:14:35.819Z,67.00
2022-07-29T02:17:06.195Z,66.40
2022-07-29T02:19:36.081Z,66.60
2022-07-29T02:22:05.263Z,66.20
2022-07-29T02:24:33.693Z,67.00
2022-07-29T02:27:04.565Z,66.60
2022-07-29T02:29:33.642Z,66.00
2022-07-29T02:32:05.405Z,66.70
2022-07-29T02:34:35.907Z,66.90
2022-07-29T02:37:05.950Z,67.50
2022-07-29T02:39:34.490Z,68.00
2022-07-29T02:42:08.248Z,69.80
2022-07-29T02:44:37.222Z,69.70
2022-07-29T02:47:15.577Z,70.20
2022-07-29T02:49:54.951Z,71.10
2022-07-29T02:52:29.446Z,72.60
2022-07-29T02:55:02.377Z,73.60
2022-07-29T02:57:54.866Z,72.10
2022-07-29T03:00:26.304Z,73.00
2022-07-29T03:03:01.902Z,72.00
2022-07-29T03:05:30.857Z,74.10
2022-07-29T03:08:04.131Z,74.10
2022-07-29T03:10:33.703Z,74.60
2022-07-29T03:13:02.958Z,74.20
2022-07-29T03:15:33.016Z,74.10
2022-07-29T03:18:03.242Z,73.90
2022-07-29T03:20:31.635Z,74.30
2022-07-29T03:22:59.999Z,76.20
2022-07-29T03:25:29.185Z,75.20
2022-07-29T03:27:57.736Z,74.50
2022-07-29T03:30:26.389Z,74.90
2022-07-29T03:32:56.670Z,76.10
2022-07-29T03:35:28.779Z,76.60
2022-07-29T03:37:57.073Z,77.50
2022-07-29T03:40:34.342Z,78.10
2022-07-29T03:43:03.415Z,77.50
2022-07-29T03:45:34.442Z,77.50
2022-07-29T03:48:10.714Z,77.70
2022-07-29T03:50:40.662Z,77.10
2022-07-29T03:53:09.862Z,77.80
2022-07-29T03:55:44.077Z,78.80
2022-07-29T03:58:13.771Z,80.40
2022-07-29T04:00:44.328Z,81.40
2022-07-29T04:03:12.857Z,82.50
2022-07-29T04:05:45.524Z,82.40
2022-07-29T04:08:13.867Z,83.00
2022-07-29T04:10:42.214Z,83.00
2022-07-29T04:13:10.672Z,83.70
2022-07-29T04:15:38.958Z,82.80
2022-07-29T04:18:07.359Z,83.90
2022-07-29T04:20:35.630Z,84.20
2022-07-29T04:23:05.521Z,84.70
2022-07-29T04:25:34.035Z,84.20
2022-07-29T04:28:02.322Z,84.50
2022-07-29T04:30:31.660Z,84.00
2022-07-29T04:33:01.794Z,84.50
2022-07-29T04:35:30.508Z,85.10
2022-07-29T04:38:15.602Z,86.40
2022-07-29T04:40:45.456Z,85.90
2022-07-29T04:43:16.045Z,86.20
2022-07-29T04:45:44.380Z,86.50
2022-07-29T04:48:12.961Z,86.80
2022-07-29T04:50:41.846Z,87.10
2022-07-29T04:53:11.511Z,86.70
2022-07-29T04:55:39.842Z,86.80
2022-07-29T04:58:08.521Z,86.70
2022-07-29T05:00:37.153Z,86.60
2022-07-29T05:03:05.829Z,87.20
2022-07-29T05:05:34.314Z,87.20
2022-07-29T05:08:02.773Z,87.20
2022-07-29T05:10:32.536Z,86.40
2022-07-29T05:13:00.807Z,86.20
2022-07-29T05:15:29.396Z,86.40
2022-07-29T05:17:57.768Z,86.20
2022-07-29T05:20:29.237Z,86.20
2022-07-29T05:22:59.307Z,85.80
2022-07-29T05:25:43.364Z,85.70
2022-07-29T05:28:14.517Z,86.50
2022-07-29T05:30:42.953Z,86.50
2022-07-29T05:33:35.270Z,86.20
2022-07-29T05:36:00.726Z,86.10
2022-07-29T05:38:29.412Z,86.40
2022-07-29T05:41:00.396Z,86.20
2022-07-29T05:43:31.064Z,86.40
2022-07-29T05:45:59.527Z,86.20
2022-07-29T05:48:28.028Z,85.80
2022-07-29T05:50:56.801Z,86.50
2022-07-29T05:53:25.378Z,86.10
2022-07-29T05:55:53.957Z,85.80
2022-07-29T05:58:22.643Z,85.10
2022-07-29T06:00:52.318Z,85.10
2022-07-29T06:03:20.799Z,85.20
2022-07-29T06:05:49.055Z,85.10
2022-07-29T06:08:17.494Z,85.00
2022-07-29T06:10:46.577Z,85.50
2022-07-29T06:13:16.861Z,85.20
2022-07-29T06:15:46.136Z,85.40
2022-07-29T06:18:16.250Z,84.90
2022-07-29T06:20:44.671Z,85.80
2022-07-29T06:23:12.991Z,85.70
2022-07-29T06:25:42.777Z,85.20
2022-07-29T06:28:11.376Z,85.20
2022-07-29T06:30:40.181Z,84.80
2022-07-29T06:33:08.580Z,84.80
2022-07-29T06:35:42.363Z,84.90
2022-07-29T06:38:30.060Z,85.10
2022-07-29T06:41:05.005Z,85.40
2022-07-29T06:43:50.418Z,85.50
2022-07-29T06:46:21.112Z,85.60
2022-07-29T06:48:50.318Z,85.50
2022-07-29T06:51:22.153Z,85.80
2022-07-29T06:53:59.895Z,86.10
2022-07-29T06:56:31.608Z,85.80
2022-07-29T06:58:59.943Z,85.90
2022-07-29T07:01:30.094Z,85.90
2022-07-29T07:03:58.522Z,86.30
2022-07-29T07:06:28.462Z,86.60
2022-07-29T07:08:56.834Z,86.20
2022-07-29T07:11:25.318Z,86.00
2022-07-29T07:13:53.749Z,85.70
2022-07-29T07:16:22.156Z,85.60
2022-07-29T07:18:50.494Z,85.80
2022-07-29T07:21:19.593Z,85.10
2022-07-29T07:23:49.503Z,85.40
2022-07-29T07:26:17.816Z,85.30
2022-07-29T07:28:46.113Z,85.40
2022-07-29T07:31:15.213Z,85.40
2022-07-29T07:33:43.523Z,85.20
2022-07-29T07:36:11.886Z,85.30
2022-07-29T07:38:40.237Z,85.10
2022-07-29T07:41:09.934Z,84.60
2022-07-29T07:43:38.239Z,85.20
2022-07-29T07:46:06.772Z,85.50
2022-07-29T07:48:35.838Z,85.40
2022-07-29T07:51:04.749Z,84.90
2022-07-29T07:53:33.121Z,85.00
2022-07-29T07:56:10.881Z,85.10
2022-07-29T07:58:41.707Z,84.50
2022-07-29T08:01:10.708Z,84.90
2022-07-29T08:03:39.833Z,85.00
2022-07-29T08:06:08.534Z,85.00
2022-07-29T08:08:36.913Z,84.80
2022-07-29T08:11:09.463Z,84.80
2022-07-29T08:13:39.637Z,85.00
2022-07-29T08:16:16.887Z,85.20
2022-07-29T08:18:47.429Z,85.20
2022-07-29T08:21:16.988Z,85.30
2022-07-29T08:23:59.770Z,85.30
2022-07-29T08:26:30.205Z,84.90
2022-07-29T08:28:58.546Z,84.80
2022-07-29T08:31:28.294Z,84.90
2022-07-29T08:33:57.224Z,84.30
2022-07-29T08:36:25.960Z,84.40
2022-07-29T08:38:54.568Z,84.50
2022-07-29T08:41:23.237Z,85.70
2022-07-29T08:43:52.903Z,85.80
2022-07-29T08:46:22.362Z,85.80
2022-07-29T08:48:52.473Z,85.90
2022-07-29T08:51:22.767Z,85.70
2022-07-29T08:53:52.584Z,85.90
2022-07-29T08:56:21.908Z,85.40
2022-07-29T08:58:52.632Z,85.20
2022-07-29T09:01:36.289Z,84.60
2022-07-29T09:04:14.414Z,84.70
2022-07-29T09:06:47.628Z,83.10
2022-07-29T09:09:16.626Z,83.60
2022-07-29T09:11:45.833Z,82.70
2022-07-29T09:14:15.680Z,81.90
2022-07-29T09:16:58.255Z,80.10
2022-07-29T09:19:32.070Z,80.50
2022-07-29T09:22:03.702Z,79.40
2022-07-29T09:24:47.031Z,79.10
2022-07-29T09:27:23.833Z,79.80
2022-07-29T09:30:00.247Z,80.60
2022-07-29T09:32:29.224Z,78.50
2022-07-29T09:35:25.250Z,77.80
2022-07-29T09:37:54.047Z,78.10
2022-07-29T09:40:25.970Z,75.20
2022-07-29T09:42:56.606Z,74.40
2022-07-29T09:45:32.928Z,72.80
2022-07-29T09:48:04.341Z,72.70
2022-07-29T09:50:43.169Z,72.20
2022-07-29T09:53:11.663Z,72.60
2022-07-29T09:55:50.807Z,74.00
2022-07-29T09:58:22.256Z,73.70
2022-07-29T10:00:52.673Z,73.20
2022-07-29T10:03:22.365Z,73.70
2022-07-29T10:06:09.231Z,71.80
2022-07-29T10:08:38.007Z,72.50
2022-07-29T10:11:14.699Z,72.20
2022-07-29T10:13:46.138Z,72.90
2022-07-29T10:16:16.234Z,73.10
2022-07-29T10:18:47.738Z,71.80
2022-07-29T10:21:22.483Z,69.50
2022-07-29T10:24:04.020Z,69.10
2022-07-29T10:26:33.070Z,69.10
2022-07-29T10:29:03.183Z,68.00
2022-07-29T10:31:41.549Z,69.20
2022-07-29T10:34:21.575Z,68.90
2022-07-29T10:37:05.280Z,69.50
2022-07-29T10:39:54.315Z,68.60
2022-07-29T10:42:33.366Z,68.60
2022-07-29T10:45:05.063Z,66.00
2022-07-29T10:47:35.397Z,67.40
2022-07-29T10:50:06.461Z,67.10
2022-07-29T10:52:58.694Z,67.10
2022-07-29T10:55:39.304Z,66.70
2022-07-29T10:58:17.880Z,66.50
2022-07-29T11:00:47.945Z,65.80
2022-07-29T11:03:49.476Z,64.70
2022-07-29T11:06:26.351Z,65.20
2022-07-29T11:09:35.115Z,65.60
2022-07-29T11:12:46.881Z,66.00
2022-07-29T11:15:21.961Z,65.70
2022-07-29T11:21:00.717Z,63.50
2022-07-29T11:23:34.033Z,62.70
2022-07-29T11:26:25.539Z,61.80
2022-07-29T11:29:01.946Z,60.20
2022-07-29T11:31:42.492Z,61.20
2022-07-29T11:34:28.106Z,61.50
2022-07-29T11:37:28.148Z,59.20
2022-07-29T11:40:27.389Z,60.20
2022-07-29T11:42:55.783Z,59.30
2022-07-29T11:45:43.189Z,59.60
2022-07-29T11:48:29.059Z,59.20
2022-07-29T11:50:59.528Z,59.30
2022-07-29T11:53:28.825Z,59.60
2022-07-29T11:56:02.689Z,59.50
2022-07-29T11:58:32.679Z,61.10
2022-07-29T12:01:04.242Z,61.30
2022-07-29T12:06:24.051Z,59.20
2022-07-29T12:07:03.911Z,59.90
2022-07-29T12:08:52.508Z,57.10
2022-07-29T12:11:23.566Z,57.20
2022-07-29T12:13:53.018Z,57.30
2022-07-29T12:16:29.437Z,56.10
2022-07-29T12:19:03.806Z,56.70
2022-07-29T12:21:53.928Z,56.50
2022-07-29T12:24:26.587Z,55.70
2022-07-29T12:26:59.819Z,57.80
2022-07-29T12:29:34.969Z,57.00
2022-07-29T12:32:14.254Z,58.40
2022-07-29T12:34:44.897Z,56.00
2022-07-29T12:37:13.560Z,56.30
2022-07-29T12:39:42.145Z,55.70
2022-07-29T12:42:15.179Z,55.40
2022-07-29T12:44:52.213Z,54.80
2022-07-29T12:47:22.060Z,55.20
2022-07-29T12:49:53.310Z,54.10
2022-07-29T12:52:33.803Z,54.00
2022-07-29T12:55:02.923Z,54.80
2022-07-29T12:57:32.611Z,54.50
2022-07-29T13:00:10.996Z,54.40
2022-07-29T13:02:40.805Z,52.90
2022-07-29T13:05:12.394Z,52.90
2022-07-29T13:07:55.495Z,51.70
2022-07-29T13:10:25.951Z,52.90
2022-07-29T13:13:09.043Z,52.30
2022-07-29T13:15:38.353Z,49.70
2022-07-29T13:18:07.831Z,49.30
2022-07-29T13:20:37.690Z,52.10
2022-07-29T13:23:05.989Z,50.90
2022-07-29T13:25:35.390Z,51.20
2022-07-29T13:28:03.726Z,50.10
2022-07-29T13:30:32.091Z,50.70
2022-07-29T13:33:00.437Z,50.60
2022-07-29T13:35:30.725Z,50.70
2022-07-29T13:38:00.537Z,48.80
2022-07-29T13:40:30.167Z,49.60
2022-07-29T13:42:58.428Z,51.60
2022-07-29T13:45:29.104Z,51.20
2022-07-29T13:47:57.840Z,50.10
2022-07-29T13:50:26.398Z,51.40
2022-07-29T13:52:54.824Z,50.70
2022-07-29T13:55:24.673Z,49.70
2022-07-29T13:57:53.001Z,49.60
2022-07-29T14:00:21.693Z,50.90
2022-07-29T14:02:49.987Z,50.70
2022-07-29T14:05:18.374Z,49.80
2022-07-29T14:07:46.697Z,50.70
2022-07-29T14:10:19.722Z,49.60
2022-07-29T14:12:49.765Z,48.40
2022-07-29T14:15:18.303Z,49.70
2022-07-29T14:17:46.579Z,48.10
2022-07-29T14:20:16.521Z,48.20
2022-07-29T14:22:45.836Z,49.30
2022-07-29T14:25:15.367Z,49.60
2022-07-29T14:27:44.465Z,49.00
2022-07-29T14:30:15.275Z,50.20
2022-07-29T14:32:43.760Z,50.20
2022-07-29T14:35:12.225Z,50.10
2022-07-29T14:37:41.287Z,50.80
2022-07-29T14:40:11.723Z,49.90
2022-07-29T14:42:40.520Z,50.70
2022-07-29T14:45:11.514Z,50.70
2022-07-29T14:47:41.345Z,50.00
2022-07-29T14:50:11.228Z,50.20
2022-07-29T14:52:39.526Z,49.70
2022-07-29T14:55:16.459Z,49.90
2022-07-29T14:57:49.155Z,50.20
2022-07-29T15:00:17.980Z,49.10
2022-07-29T15:03:01.543Z,50.60
2022-07-29T15:05:31.002Z,50.20
2022-07-29T15:07:59.753Z,50.70
2022-07-29T15:10:28.412Z,50.00
2022-07-29T15:12:58.255Z,50.20
2022-07-29T15:15:26.962Z,50.30
2022-07-29T15:17:56.641Z,50.30
2022-07-29T15:20:26.275Z,50.30
2022-07-29T15:22:56.469Z,50.20
2022-07-29T15:25:24.987Z,49.40
2022-07-29T15:27:55.653Z,49.30
2022-07-29T15:30:31.472Z,49.60
2022-07-29T15:33:04.146Z,50.50
2022-07-29T15:35:32.583Z,51.50
2022-07-29T15:38:01.015Z,50.40
2022-07-29T15:40:29.664Z,51.50
2022-07-29T15:42:58.301Z,51.50
2022-07-29T15:45:26.825Z,51.20
2022-07-29T15:48:02.247Z,51.20
2022-07-29T15:50:30.581Z,51.90
2022-07-29T15:52:58.850Z,51.60
2022-07-29T15:55:27.374Z,50.90
2022-07-29T15:58:00.332Z,50.30
2022-07-29T16:00:28.906Z,51.40
2022-07-29T16:02:57.603Z,50.90
2022-07-29T16:05:29.616Z,51.70
2022-07-29T16:07:59.685Z,52.20
2022-07-29T16:10:28.056Z,52.00
2022-07-29T16:12:56.310Z,51.50
2022-07-29T16:15:24.741Z,51.30
2022-07-29T16:17:53.417Z,51.50
2022-07-29T16:20:22.423Z,52.00
2022-07-29T16:22:52.379Z,49.60
2022-07-29T16:25:20.911Z,48.60
2022-07-29T16:27:49.373Z,50.10
2022-07-29T16:30:17.753Z,50.20
2022-07-29T16:32:46.081Z,49.00
2022-07-29T16:35:14.372Z,49.30
2022-07-29T16:37:42.667Z,50.20
2022-07-29T16:40:12.782Z,48.90
2022-07-29T16:42:47.005Z,49.90
2022-07-29T16:45:16.630Z,50.70
2022-07-29T16:47:46.314Z,50.60
2022-07-29T16:50:15.011Z,51.10
2022-07-29T16:52:43.332Z,50.70
2022-07-29T16:55:13.085Z,51.00
2022-07-29T16:57:42.729Z,51.00
2022-07-29T17:00:12.892Z,51.90
2022-07-29T17:02:41.248Z,51.40
2022-07-29T17:05:10.864Z,51.50
2022-07-29T17:07:39.426Z,51.60
2022-07-29T17:10:09.867Z,51.20
2022-07-29T17:12:41.642Z,50.90
2022-07-29T17:15:13.099Z,50.40
2022-07-29T17:17:55.090Z,50.30
2022-07-29T17:20:26.556Z,51.40
2022-07-29T17:22:55.065Z,50.70
2022-07-29T17:25:24.953Z,52.50
2022-07-29T17:28:00.520Z,52.20
2022-07-29T17:30:29.737Z,53.30
2022-07-29T17:32:58.037Z,51.20
2022-07-29T17:35:43.582Z,51.20
2022-07-29T17:38:11.869Z,51.50
2022-07-29T17:40:40.202Z,51.40
2022-07-29T17:43:10.360Z,51.80
2022-07-29T17:45:50.165Z,51.10
2022-07-29T17:48:19.367Z,50.60
2022-07-29T17:50:48.525Z,51.60
2022-07-29T17:53:35.737Z,52.20
2022-07-29T17:56:04.389Z,50.70
2022-07-29T17:58:35.805Z,52.10
2022-07-29T18:01:04.243Z,52.90
2022-07-29T18:03:32.727Z,53.40
2022-07-29T18:06:01.492Z,52.20
2022-07-29T18:08:30.132Z,53.10
2022-07-29T18:10:58.415Z,54.10
2022-07-29T18:13:27.277Z,54.00
2022-07-29T18:16:00.286Z,53.90
2022-07-29T18:18:28.994Z,53.80
2022-07-29T18:20:57.534Z,52.90
2022-07-29T18:23:25.871Z,52.40
2022-07-29T18:25:54.569Z,52.20
2022-07-29T18:28:22.986Z,52.50
2022-07-29T18:30:52.811Z,52.80
2022-07-29T18:33:23.003Z,52.20
2022-07-29T18:36:06.155Z,52.00
2022-07-29T18:38:39.981Z,52.70
2022-07-29T18:41:08.388Z,52.40
2022-07-29T18:43:36.762Z,53.10
2022-07-29T18:46:06.707Z,53.40
2022-07-29T18:48:36.796Z,52.50
2022-07-29T18:51:09.012Z,53.10
2022-07-29T18:53:38.005Z,53.20
2022-07-29T18:56:06.533Z,53.80
2022-07-29T18:58:36.905Z,54.60
2022-07-29T19:01:05.232Z,54.20
2022-07-29T19:03:33.770Z,55.10
2022-07-29T19:06:03.534Z,55.30
2022-07-29T19:08:32.586Z,54.70
2022-07-29T19:11:00.964Z,55.70
2022-07-29T19:13:29.349Z,55.70
2022-07-29T19:15:57.686Z,56.70
2022-07-29T19:18:26.070Z,56.90
2022-07-29T19:20:54.358Z,58.60
2022-07-29T19:23:25.523Z,57.80
2022-07-29T19:25:54.247Z,57.50
2022-07-29T19:28:22.758Z,59.20
2022-07-29T19:30:53.519Z,59.60
2022-07-29T19:33:21.626Z,59.40
2022-07-29T19:35:54.594Z,60.10
2022-07-29T19:38:25.473Z,60.00
2022-07-29T19:40:53.973Z,61.10
2022-07-29T19:43:52.136Z,61.30
2022-07-29T19:46:10.715Z,61.70
2022-07-29T19:48:39.180Z,61.20
2022-07-29T19:51:07.577Z,62.00
2022-07-29T19:53:37.503Z,62.20
2022-07-29T19:56:06.647Z,62.50
2022-07-29T19:58:37.393Z,62.40
2022-07-29T20:01:10.022Z,62.50
2022-07-29T20:03:40.821Z,63.10
2022-07-29T20:06:09.554Z,63.30
2022-07-29T20:08:39.852Z,62.50
2022-07-29T20:11:08.221Z,62.60
2022-07-29T20:13:36.513Z,63.70
2022-07-29T20:16:08.270Z,64.80
2022-07-29T20:18:36.772Z,64.20
2022-07-29T20:21:05.353Z,63.70
2022-07-29T20:23:33.790Z,64.40
2022-07-29T20:26:06.089Z,64.80
2022-07-29T20:28:37.230Z,64.50
2022-07-29T20:31:05.661Z,65.10
2022-07-29T20:33:34.069Z,65.40
2022-07-29T20:36:02.372Z,65.30
2022-07-29T20:38:30.768Z,66.00
2022-07-29T20:40:59.569Z,66.00
2022-07-29T20:43:29.253Z,65.20
2022-07-29T20:45:57.770Z,66.40
2022-07-29T20:48:26.125Z,67.20
2022-07-29T20:50:55.007Z,67.10
2022-07-29T20:53:23.638Z,67.50
2022-07-29T20:55:52.463Z,68.00
2022-07-29T20:58:21.012Z,68.10
2022-07-29T21:00:52.932Z,68.60
2022-07-29T21:03:21.294Z,69.20
2022-07-29T21:05:49.769Z,69.40
2022-07-29T21:08:18.065Z,69.50
2022-07-29T21:10:46.366Z,69.80
2022-07-29T21:13:14.851Z,69.70
2022-07-29T21:15:45.844Z,70.50
2022-07-29T21:18:27.159Z,70.80
2022-07-29T21:20:55.433Z,70.40
2022-07-29T21:23:24.001Z,70.80
2022-07-29T21:25:52.367Z,70.80
2022-07-29T21:28:30.563Z,71.20
2022-07-29T21:31:02.352Z,71.70
2022-07-29T21:33:33.445Z,71.90
2022-07-29T21:36:26.683Z,72.50
2022-07-29T21:38:49.848Z,72.20
2022-07-29T21:41:18.217Z,71.90
2022-07-29T21:43:47.829Z,72.40
2022-07-29T21:46:18.205Z,72.30
2022-07-29T21:48:47.927Z,72.00
2022-07-29T21:51:16.277Z,72.50
2022-07-29T21:53:44.620Z,72.50
2022-07-29T21:56:15.031Z,73.10
2022-07-29T21:58:44.052Z,73.20
2022-07-29T22:01:12.576Z,73.10
2022-07-29T22:03:40.947Z,73.90
2022-07-29T22:06:11.277Z,74.00
2022-07-29T22:08:47.880Z,74.60
2022-07-29T22:11:16.773Z,74.40
2022-07-29T22:13:45.089Z,74.50
2022-07-29T22:16:15.065Z,74.20
2022-07-29T22:18:46.714Z,75.00
2022-07-29T22:21:16.840Z,75.40
2022-07-29T22:23:45.301Z,75.90
2022-07-29T22:26:13.754Z,75.90
2022-07-29T22:28:42.014Z,76.00
2022-07-29T22:31:10.557Z,76.20
2022-07-29T22:33:39.510Z,76.00
2022-07-29T22:36:08.665Z,76.30
2022-07-29T22:38:38.572Z,77.30
2022-07-29T22:41:06.954Z,77.50
2022-07-29T22:43:36.606Z,77.10
2022-07-29T22:46:05.042Z,77.10
2022-07-29T22:48:33.408Z,76.90
2022-07-29T22:51:01.662Z,76.60
2022-07-29T22:53:29.937Z,76.80
2022-07-29T22:55:59.797Z,76.70
2022-07-29T22:58:28.168Z,77.20
2022-07-29T23:00:56.481Z,76.90
2022-07-29T23:03:24.856Z,77.00
2022-07-29T23:05:53.209Z,77.30
2022-07-29T23:08:21.611Z,77.50
2022-07-29T23:10:50.058Z,77.70
2022-07-29T23:13:19.695Z,77.70
2022-07-29T23:15:48.054Z,77.90
2022-07-29T23:18:16.664Z,78.20
2022-07-29T23:20:45.534Z,78.00
2022-07-29T23:23:14.019Z,78.00
2022-07-29T23:25:42.574Z,78.30
2022-07-29T23:28:11.678Z,78.50
2022-07-29T23:30:43.499Z,78.30
2022-07-29T23:33:11.836Z,78.10
2022-07-29T23:35:40.229Z,78.40
2022-07-29T23:38:08.549Z,78.70
2022-07-29T23:40:36.951Z,78.70
2022-07-29T23:43:08.819Z,78.60
2022-07-29T23:45:42.544Z,78.70
2022-07-29T23:48:14.605Z,79.20
2022-07-29T23:50:43.262Z,79.00
2022-07-29T23:53:12.121Z,79.40
2022-07-29T23:55:40.436Z,79.20
2022-07-29T23:58:08.761Z,79.00
